sensor_id;sensor_type;location;lat;lon;timestamp;temperature;humidity
54260;DHT22;40172;53.022;7.012;2023-05-10T00:00:57;13.80;99.90
54260;DHT22;40172;53.022;7.012;2023-05-10T00:03:23;13.80;99.90
54260;DHT22;40172;53.022;7.012;2023-05-10T00:05:49;13.70;99.90
54260;DHT22;40172;53.022;7.012;2023-05-10T00:08:14;13.70;99.90
54260;DHT22;40172;53.022;7.012;2023-05-10T00:10:40;13.70;99.90
54260;DHT22;40172;53.022;7.012;2023-05-10T00:13:06;13.70;99.90
54260;DHT22;40172;53.022;7.012;2023-05-10T00:15:31;13.70;99.90
54260;DHT22;40172;53.022;7.012;2023-05-10T00:17:57;13.80;99.90
54260;DHT22;40172;53.022;7.012;2023-05-10T00:20:23;13.70;99.90
54260;DHT22;40172;53.022;7.012;2023-05-10T00:22:48;13.80;99.90
54260;DHT22;40172;53.022;7.012;2023-05-10T00:25:14;13.80;99.90
54260;DHT22;40172;53.022;7.012;2023-05-10T00:27:39;13.60;99.90
54260;DHT22;40172;53.022;7.012;2023-05-10T00:30:06;13.70;99.90
54260;DHT22;40172;53.022;7.012;2023-05-10T00:32:32;13.70;99.90
54260;DHT22;40172;53.022;7.012;2023-05-10T00:34:57;13.70;99.90
54260;DHT22;40172;53.022;7.012;2023-05-10T00:37:23;13.50;99.90
54260;DHT22;40172;53.022;7.012;2023-05-10T00:39:48;13.60;99.90
54260;DHT22;40172;53.022;7.012;2023-05-10T00:42:14;13.50;99.90
54260;DHT22;40172;53.022;7.012;2023-05-10T00:44:39;13.30;99.90
54260;DHT22;40172;53.022;7.012;2023-05-10T00:47:05;13.20;99.90
54260;DHT22;40172;53.022;7.012;2023-05-10T00:49:31;13.10;99.90
54260;DHT22;40172;53.022;7.012;2023-05-10T00:51:56;13.10;99.90
54260;DHT22;40172;53.022;7.012;2023-05-10T00:54:22;13.00;99.90
54260;DHT22;40172;53.022;7.012;2023-05-10T00:56:48;12.90;99.90
54260;DHT22;40172;53.022;7.012;2023-05-10T00:59:18;12.90;99.90
54260;DHT22;40172;53.022;7.012;2023-05-10T01:01:47;12.90;99.90
54260;DHT22;40172;53.022;7.012;2023-05-10T01:04:13;12.90;99.90
54260;DHT22;40172;53.022;7.012;2023-05-10T01:06:43;12.80;99.90
54260;DHT22;40172;53.022;7.012;2023-05-10T01:09:08;12.80;99.90
54260;DHT22;40172;53.022;7.012;2023-05-10T01:11:35;12.80;99.90
54260;DHT22;40172;53.022;7.012;2023-05-10T01:14:02;12.70;99.90
54260;DHT22;40172;53.022;7.012;2023-05-10T01:16:32;12.80;99.90
54260;DHT22;40172;53.022;7.012;2023-05-10T01:18:59;12.80;99.90
54260;DHT22;40172;53.022;7.012;2023-05-10T01:21:46;12.80;99.90
54260;DHT22;40172;53.022;7.012;2023-05-10T01:32:16;12.70;99.90
54260;DHT22;40172;53.022;7.012;2023-05-10T01:35:00;12.70;99.90
54260;DHT22;40172;53.022;7.012;2023-05-10T01:37:40;12.70;99.90
54260;DHT22;40172;53.022;7.012;2023-05-10T01:40:19;12.60;99.90
54260;DHT22;40172;53.022;7.012;2023-05-10T01:42:51;12.60;99.90
54260;DHT22;40172;53.022;7.012;2023-05-10T01:45:24;12.60;99.90
54260;DHT22;40172;53.022;7.012;2023-05-10T01:47:58;12.60;99.90
54260;DHT22;40172;53.022;7.012;2023-05-10T01:50:29;12.60;99.90
54260;DHT22;40172;53.022;7.012;2023-05-10T01:52:57;12.60;99.90
54260;DHT22;40172;53.022;7.012;2023-05-10T01:55:27;12.60;99.90
54260;DHT22;40172;53.022;7.012;2023-05-10T01:58:01;12.60;99.90
54260;DHT22;40172;53.022;7.012;2023-05-10T02:00:28;12.60;99.90
54260;DHT22;40172;53.022;7.012;2023-05-10T02:02:55;12.60;99.90
54260;DHT22;40172;53.022;7.012;2023-05-10T02:05:21;12.50;99.90
54260;DHT22;40172;53.022;7.012;2023-05-10T02:07:47;12.60;99.90
54260;DHT22;40172;53.022;7.012;2023-05-10T02:10:15;12.60;99.90
54260;DHT22;40172;53.022;7.012;2023-05-10T02:12:46;12.60;99.90
54260;DHT22;40172;53.022;7.012;2023-05-10T02:15:17;12.60;99.90
54260;DHT22;40172;53.022;7.012;2023-05-10T02:17:45;12.60;99.90
54260;DHT22;40172;53.022;7.012;2023-05-10T02:20:12;12.60;99.90
54260;DHT22;40172;53.022;7.012;2023-05-10T02:22:40;12.60;99.90
54260;DHT22;40172;53.022;7.012;2023-05-10T02:25:08;12.60;99.90
54260;DHT22;40172;53.022;7.012;2023-05-10T02:27:36;12.60;99.90
54260;DHT22;40172;53.022;7.012;2023-05-10T02:30:03;12.60;99.90
54260;DHT22;40172;53.022;7.012;2023-05-10T02:32:30;12.60;99.90
54260;DHT22;40172;53.022;7.012;2023-05-10T02:34:57;12.70;99.90
54260;DHT22;40172;53.022;7.012;2023-05-10T02:37:24;12.60;99.90
54260;DHT22;40172;53.022;7.012;2023-05-10T02:39:52;12.60;99.90
54260;DHT22;40172;53.022;7.012;2023-05-10T02:42:25;12.60;99.90
54260;DHT22;40172;53.022;7.012;2023-05-10T02:44:56;12.50;99.90
54260;DHT22;40172;53.022;7.012;2023-05-10T02:47:24;12.50;99.90
54260;DHT22;40172;53.022;7.012;2023-05-10T02:49:50;12.50;99.90
54260;DHT22;40172;53.022;7.012;2023-05-10T02:52:21;12.60;99.90
54260;DHT22;40172;53.022;7.012;2023-05-10T02:54:50;12.60;99.90
54260;DHT22;40172;53.022;7.012;2023-05-10T02:57:24;12.50;99.90
54260;DHT22;40172;53.022;7.012;2023-05-10T02:59:50;12.60;99.90
54260;DHT22;40172;53.022;7.012;2023-05-10T03:02:16;12.50;99.90
54260;DHT22;40172;53.022;7.012;2023-05-10T03:04:42;12.60;99.90
54260;DHT22;40172;53.022;7.012;2023-05-10T03:07:08;12.50;99.90
54260;DHT22;40172;53.022;7.012;2023-05-10T03:09:33;12.60;99.90
54260;DHT22;40172;53.022;7.012;2023-05-10T03:17:11;12.60;99.90
54260;DHT22;40172;53.022;7.012;2023-05-10T03:19:47;12.60;99.90
54260;DHT22;40172;53.022;7.012;2023-05-10T03:22:22;12.50;99.90
54260;DHT22;40172;53.022;7.012;2023-05-10T03:24:49;12.50;99.90
54260;DHT22;40172;53.022;7.012;2023-05-10T03:27:15;12.50;99.90
54260;DHT22;40172;53.022;7.012;2023-05-10T03:29:41;13.00;99.90
54260;DHT22;40172;53.022;7.012;2023-05-10T03:32:07;12.40;99.90
54260;DHT22;40172;53.022;7.012;2023-05-10T03:34:33;12.40;99.90
54260;DHT22;40172;53.022;7.012;2023-05-10T03:36:59;12.40;99.90
54260;DHT22;40172;53.022;7.012;2023-05-10T03:39:24;12.40;99.90
54260;DHT22;40172;53.022;7.012;2023-05-10T03:41:50;12.50;99.90
54260;DHT22;40172;53.022;7.012;2023-05-10T03:44:16;12.40;99.90
54260;DHT22;40172;53.022;7.012;2023-05-10T03:46:41;12.50;99.90
54260;DHT22;40172;53.022;7.012;2023-05-10T03:49:07;12.40;99.90
54260;DHT22;40172;53.022;7.012;2023-05-10T03:51:33;12.50;99.90
54260;DHT22;40172;53.022;7.012;2023-05-10T03:53:58;12.50;99.90
54260;DHT22;40172;53.022;7.012;2023-05-10T03:56:24;12.50;99.90
54260;DHT22;40172;53.022;7.012;2023-05-10T03:58:49;12.50;99.90
54260;DHT22;40172;53.022;7.012;2023-05-10T04:01:15;12.40;99.90
54260;DHT22;40172;53.022;7.012;2023-05-10T04:03:40;12.40;99.90
54260;DHT22;40172;53.022;7.012;2023-05-10T04:06:06;12.40;99.90
54260;DHT22;40172;53.022;7.012;2023-05-10T04:08:34;12.40;99.90
54260;DHT22;40172;53.022;7.012;2023-05-10T04:11:10;12.40;99.90
54260;DHT22;40172;53.022;7.012;2023-05-10T04:13:37;12.40;99.90
54260;DHT22;40172;53.022;7.012;2023-05-10T04:16:03;12.40;99.90
54260;DHT22;40172;53.022;7.012;2023-05-10T04:18:30;12.40;99.90
54260;DHT22;40172;53.022;7.012;2023-05-10T04:20:55;12.50;99.90
54260;DHT22;40172;53.022;7.012;2023-05-10T04:23:21;12.50;99.90
54260;DHT22;40172;53.022;7.012;2023-05-10T04:25:47;12.40;99.90
54260;DHT22;40172;53.022;7.012;2023-05-10T04:28:12;12.40;99.90
54260;DHT22;40172;53.022;7.012;2023-05-10T04:30:38;12.50;99.90
54260;DHT22;40172;53.022;7.012;2023-05-10T04:33:04;12.40;99.90
54260;DHT22;40172;53.022;7.012;2023-05-10T04:35:30;12.50;99.90
54260;DHT22;40172;53.022;7.012;2023-05-10T04:37:56;12.50;99.90
54260;DHT22;40172;53.022;7.012;2023-05-10T04:40:21;12.40;99.90
54260;DHT22;40172;53.022;7.012;2023-05-10T04:42:47;12.50;99.90
54260;DHT22;40172;53.022;7.012;2023-05-10T04:45:13;12.50;99.90
54260;DHT22;40172;53.022;7.012;2023-05-10T04:47:40;12.50;99.90
54260;DHT22;40172;53.022;7.012;2023-05-10T04:50:06;12.50;99.90
54260;DHT22;40172;53.022;7.012;2023-05-10T04:52:32;12.60;99.90
54260;DHT22;40172;53.022;7.012;2023-05-10T04:54:58;12.50;99.90
54260;DHT22;40172;53.022;7.012;2023-05-10T04:57:23;12.50;99.90
54260;DHT22;40172;53.022;7.012;2023-05-10T04:59:49;12.50;99.90
54260;DHT22;40172;53.022;7.012;2023-05-10T05:02:14;12.50;99.90
54260;DHT22;40172;53.022;7.012;2023-05-10T05:04:40;12.60;99.90
54260;DHT22;40172;53.022;7.012;2023-05-10T05:07:06;12.60;99.90
54260;DHT22;40172;53.022;7.012;2023-05-10T05:09:31;12.50;99.90
54260;DHT22;40172;53.022;7.012;2023-05-10T05:11:59;12.50;99.90
54260;DHT22;40172;53.022;7.012;2023-05-10T05:14:25;12.50;99.90
54260;DHT22;40172;53.022;7.012;2023-05-10T05:16:52;12.60;99.90
54260;DHT22;40172;53.022;7.012;2023-05-10T05:19:17;12.60;99.90
54260;DHT22;40172;53.022;7.012;2023-05-10T05:21:43;12.50;99.90
54260;DHT22;40172;53.022;7.012;2023-05-10T05:24:08;12.60;99.90
54260;DHT22;40172;53.022;7.012;2023-05-10T05:26:35;12.60;99.90
54260;DHT22;40172;53.022;7.012;2023-05-10T05:29:02;12.50;99.90
54260;DHT22;40172;53.022;7.012;2023-05-10T05:31:28;12.60;99.90
54260;DHT22;40172;53.022;7.012;2023-05-10T05:33:54;12.60;99.90
54260;DHT22;40172;53.022;7.012;2023-05-10T05:36:19;12.50;99.90
54260;DHT22;40172;53.022;7.012;2023-05-10T05:38:45;12.50;99.90
54260;DHT22;40172;53.022;7.012;2023-05-10T05:41:10;12.50;99.90
54260;DHT22;40172;53.022;7.012;2023-05-10T05:43:36;12.50;99.90
54260;DHT22;40172;53.022;7.012;2023-05-10T05:46:02;12.50;99.90
54260;DHT22;40172;53.022;7.012;2023-05-10T05:48:29;13.20;99.90
54260;DHT22;40172;53.022;7.012;2023-05-10T05:50:55;12.60;99.90
54260;DHT22;40172;53.022;7.012;2023-05-10T05:53:24;12.50;99.90
54260;DHT22;40172;53.022;7.012;2023-05-10T05:55:54;12.60;99.90
54260;DHT22;40172;53.022;7.012;2023-05-10T05:58:21;12.50;99.90
54260;DHT22;40172;53.022;7.012;2023-05-10T06:00:47;12.40;99.90
54260;DHT22;40172;53.022;7.012;2023-05-10T06:03:13;12.50;99.90
54260;DHT22;40172;53.022;7.012;2023-05-10T06:05:39;12.50;99.90
54260;DHT22;40172;53.022;7.012;2023-05-10T06:08:04;12.50;99.90
54260;DHT22;40172;53.022;7.012;2023-05-10T06:10:30;12.40;99.90
54260;DHT22;40172;53.022;7.012;2023-05-10T06:12:56;12.40;99.90
54260;DHT22;40172;53.022;7.012;2023-05-10T06:15:22;12.50;99.90
54260;DHT22;40172;53.022;7.012;2023-05-10T06:17:47;12.50;99.90
54260;DHT22;40172;53.022;7.012;2023-05-10T06:20:15;12.50;99.90
54260;DHT22;40172;53.022;7.012;2023-05-10T06:22:41;12.50;99.90
54260;DHT22;40172;53.022;7.012;2023-05-10T06:25:07;12.40;99.90
54260;DHT22;40172;53.022;7.012;2023-05-10T06:27:33;12.40;99.90
54260;DHT22;40172;53.022;7.012;2023-05-10T06:29:58;12.40;99.90
54260;DHT22;40172;53.022;7.012;2023-05-10T06:32:24;12.50;99.90
54260;DHT22;40172;53.022;7.012;2023-05-10T06:34:50;12.50;99.90
54260;DHT22;40172;53.022;7.012;2023-05-10T06:37:15;12.50;99.90
54260;DHT22;40172;53.022;7.012;2023-05-10T06:39:41;12.50;99.90
54260;DHT22;40172;53.022;7.012;2023-05-10T06:42:06;13.20;99.90
54260;DHT22;40172;53.022;7.012;2023-05-10T06:44:32;12.50;99.90
54260;DHT22;40172;53.022;7.012;2023-05-10T06:46:57;12.50;99.90
54260;DHT22;40172;53.022;7.012;2023-05-10T06:49:23;12.40;99.90
54260;DHT22;40172;53.022;7.012;2023-05-10T06:51:49;12.40;99.90
54260;DHT22;40172;53.022;7.012;2023-05-10T06:54:14;12.40;99.90
54260;DHT22;40172;53.022;7.012;2023-05-10T06:56:40;12.40;99.90
54260;DHT22;40172;53.022;7.012;2023-05-10T06:59:06;12.50;99.90
54260;DHT22;40172;53.022;7.012;2023-05-10T07:01:32;12.40;99.90
54260;DHT22;40172;53.022;7.012;2023-05-10T07:03:58;12.40;99.90
54260;DHT22;40172;53.022;7.012;2023-05-10T07:06:23;12.50;99.90
54260;DHT22;40172;53.022;7.012;2023-05-10T07:08:49;12.50;99.90
54260;DHT22;40172;53.022;7.012;2023-05-10T07:11:15;12.50;99.90
54260;DHT22;40172;53.022;7.012;2023-05-10T07:13:40;12.50;99.90
54260;DHT22;40172;53.022;7.012;2023-05-10T07:16:09;12.40;99.90
54260;DHT22;40172;53.022;7.012;2023-05-10T07:18:35;12.60;99.90
54260;DHT22;40172;53.022;7.012;2023-05-10T07:21:01;12.50;99.90
54260;DHT22;40172;53.022;7.012;2023-05-10T07:23:27;12.50;99.90
54260;DHT22;40172;53.022;7.012;2023-05-10T07:25:53;12.40;99.90
54260;DHT22;40172;53.022;7.012;2023-05-10T07:28:19;12.50;99.90
54260;DHT22;40172;53.022;7.012;2023-05-10T07:30:45;12.40;99.90
54260;DHT22;40172;53.022;7.012;2023-05-10T07:33:13;12.40;99.90
54260;DHT22;40172;53.022;7.012;2023-05-10T07:35:39;12.40;99.90
54260;DHT22;40172;53.022;7.012;2023-05-10T07:38:05;12.40;99.90
54260;DHT22;40172;53.022;7.012;2023-05-10T07:40:31;12.40;99.90
54260;DHT22;40172;53.022;7.012;2023-05-10T07:42:57;12.40;99.90
54260;DHT22;40172;53.022;7.012;2023-05-10T07:45:23;12.40;99.90
54260;DHT22;40172;53.022;7.012;2023-05-10T07:47:49;12.50;99.90
54260;DHT22;40172;53.022;7.012;2023-05-10T07:50:15;12.40;99.90
54260;DHT22;40172;53.022;7.012;2023-05-10T07:52:41;12.50;99.90
54260;DHT22;40172;53.022;7.012;2023-05-10T07:55:07;12.60;99.90
54260;DHT22;40172;53.022;7.012;2023-05-10T07:57:34;12.50;99.90
54260;DHT22;40172;53.022;7.012;2023-05-10T07:59:59;12.50;99.90
54260;DHT22;40172;53.022;7.012;2023-05-10T08:02:25;12.50;99.90
54260;DHT22;40172;53.022;7.012;2023-05-10T08:04:51;12.60;99.90
54260;DHT22;40172;53.022;7.012;2023-05-10T08:07:17;12.50;99.90
54260;DHT22;40172;53.022;7.012;2023-05-10T08:09:42;12.60;99.90
54260;DHT22;40172;53.022;7.012;2023-05-10T08:12:08;12.70;99.90
54260;DHT22;40172;53.022;7.012;2023-05-10T08:14:34;12.60;99.90
54260;DHT22;40172;53.022;7.012;2023-05-10T08:16:59;12.60;99.90
54260;DHT22;40172;53.022;7.012;2023-05-10T08:19:25;12.80;99.90
54260;DHT22;40172;53.022;7.012;2023-05-10T08:21:52;12.80;99.90
54260;DHT22;40172;53.022;7.012;2023-05-10T08:24:18;12.90;99.90
54260;DHT22;40172;53.022;7.012;2023-05-10T08:26:44;12.90;99.90
54260;DHT22;40172;53.022;7.012;2023-05-10T08:29:10;13.00;99.90
54260;DHT22;40172;53.022;7.012;2023-05-10T08:31:35;13.00;99.90
54260;DHT22;40172;53.022;7.012;2023-05-10T08:34:01;13.00;99.90
54260;DHT22;40172;53.022;7.012;2023-05-10T08:36:26;13.00;99.90
54260;DHT22;40172;53.022;7.012;2023-05-10T08:38:53;13.00;99.90
54260;DHT22;40172;53.022;7.012;2023-05-10T08:41:23;13.00;99.90
54260;DHT22;40172;53.022;7.012;2023-05-10T08:43:53;13.10;99.90
54260;DHT22;40172;53.022;7.012;2023-05-10T08:46:20;13.20;99.90
54260;DHT22;40172;53.022;7.012;2023-05-10T08:48:47;13.10;99.90
54260;DHT22;40172;53.022;7.012;2023-05-10T08:51:15;13.10;99.90
54260;DHT22;40172;53.022;7.012;2023-05-10T08:53:42;13.20;99.90
54260;DHT22;40172;53.022;7.012;2023-05-10T08:56:07;13.20;99.90
54260;DHT22;40172;53.022;7.012;2023-05-10T08:58:33;13.40;99.90
54260;DHT22;40172;53.022;7.012;2023-05-10T09:00:59;13.40;99.90
54260;DHT22;40172;53.022;7.012;2023-05-10T09:03:26;13.50;99.90
54260;DHT22;40172;53.022;7.012;2023-05-10T09:05:52;13.50;99.90
54260;DHT22;40172;53.022;7.012;2023-05-10T09:08:18;13.60;99.90
54260;DHT22;40172;53.022;7.012;2023-05-10T09:10:44;13.50;99.90
54260;DHT22;40172;53.022;7.012;2023-05-10T09:13:14;13.60;99.90
54260;DHT22;40172;53.022;7.012;2023-05-10T09:15:40;13.50;99.90
54260;DHT22;40172;53.022;7.012;2023-05-10T09:18:06;13.40;99.90
54260;DHT22;40172;53.022;7.012;2023-05-10T09:20:31;13.40;99.90
54260;DHT22;40172;53.022;7.012;2023-05-10T09:22:57;13.50;99.90
54260;DHT22;40172;53.022;7.012;2023-05-10T09:25:23;13.50;99.90
54260;DHT22;40172;53.022;7.012;2023-05-10T09:27:48;13.50;99.90
54260;DHT22;40172;53.022;7.012;2023-05-10T09:30:31;13.50;99.90
54260;DHT22;40172;53.022;7.012;2023-05-10T09:32:58;13.40;99.90
54260;DHT22;40172;53.022;7.012;2023-05-10T09:35:26;13.50;99.90
54260;DHT22;40172;53.022;7.012;2023-05-10T09:37:53;13.50;99.90
54260;DHT22;40172;53.022;7.012;2023-05-10T09:40:24;13.50;99.90
54260;DHT22;40172;53.022;7.012;2023-05-10T09:43:01;13.50;99.90
54260;DHT22;40172;53.022;7.012;2023-05-10T09:45:28;13.50;99.90
54260;DHT22;40172;53.022;7.012;2023-05-10T09:47:55;13.40;99.90
54260;DHT22;40172;53.022;7.012;2023-05-10T09:50:21;13.40;99.90
54260;DHT22;40172;53.022;7.012;2023-05-10T09:53:00;13.80;99.90
54260;DHT22;40172;53.022;7.012;2023-05-10T09:55:39;13.30;99.90
54260;DHT22;40172;53.022;7.012;2023-05-10T09:58:05;13.30;99.90
54260;DHT22;40172;53.022;7.012;2023-05-10T10:00:40;13.20;99.90
54260;DHT22;40172;53.022;7.012;2023-05-10T10:03:06;13.20;99.90
54260;DHT22;40172;53.022;7.012;2023-05-10T10:05:35;13.30;99.90
54260;DHT22;40172;53.022;7.012;2023-05-10T10:08:04;13.40;99.90
54260;DHT22;40172;53.022;7.012;2023-05-10T10:10:32;13.40;99.90
54260;DHT22;40172;53.022;7.012;2023-05-10T10:12:58;13.40;99.90
54260;DHT22;40172;53.022;7.012;2023-05-10T10:15:25;13.40;99.90
54260;DHT22;40172;53.022;7.012;2023-05-10T10:17:51;13.40;99.90
54260;DHT22;40172;53.022;7.012;2023-05-10T10:20:19;13.50;99.90
54260;DHT22;40172;53.022;7.012;2023-05-10T10:22:46;13.70;99.90
54260;DHT22;40172;53.022;7.012;2023-05-10T10:25:13;14.10;99.90
54260;DHT22;40172;53.022;7.012;2023-05-10T10:30:43;14.70;99.90
54260;DHT22;40172;53.022;7.012;2023-05-10T10:36:01;15.10;99.90
54260;DHT22;40172;53.022;7.012;2023-05-10T10:52:36;15.20;99.90
54260;DHT22;40172;53.022;7.012;2023-05-10T10:55:19;15.30;99.90
54260;DHT22;40172;53.022;7.012;2023-05-10T10:57:55;15.40;99.90
54260;DHT22;40172;53.022;7.012;2023-05-10T11:00:37;15.40;99.90
54260;DHT22;40172;53.022;7.012;2023-05-10T11:03:11;15.40;99.90
54260;DHT22;40172;53.022;7.012;2023-05-10T11:05:51;15.20;99.90
54260;DHT22;40172;53.022;7.012;2023-05-10T11:08:30;15.10;99.90
54260;DHT22;40172;53.022;7.012;2023-05-10T11:13:39;15.30;99.90
54260;DHT22;40172;53.022;7.012;2023-05-10T11:16:19;15.40;99.90
54260;DHT22;40172;53.022;7.012;2023-05-10T11:19:02;15.40;99.90
54260;DHT22;40172;53.022;7.012;2023-05-10T11:21:32;15.40;99.90
54260;DHT22;40172;53.022;7.012;2023-05-10T11:23:59;15.40;99.90
54260;DHT22;40172;53.022;7.012;2023-05-10T11:26:31;15.40;99.90
54260;DHT22;40172;53.022;7.012;2023-05-10T11:28:58;15.30;99.90
54260;DHT22;40172;53.022;7.012;2023-05-10T11:31:27;15.30;99.90
54260;DHT22;40172;53.022;7.012;2023-05-10T11:33:58;15.20;99.90
54260;DHT22;40172;53.022;7.012;2023-05-10T11:36:28;15.20;99.90
54260;DHT22;40172;53.022;7.012;2023-05-10T11:38:55;15.20;99.90
54260;DHT22;40172;53.022;7.012;2023-05-10T11:41:22;15.30;99.90
54260;DHT22;40172;53.022;7.012;2023-05-10T11:43:54;15.30;99.90
54260;DHT22;40172;53.022;7.012;2023-05-10T11:46:21;15.30;99.90
54260;DHT22;40172;53.022;7.012;2023-05-10T11:48:51;15.20;99.90
54260;DHT22;40172;53.022;7.012;2023-05-10T11:51:21;15.30;99.90
54260;DHT22;40172;53.022;7.012;2023-05-10T11:53:47;15.30;99.90
54260;DHT22;40172;53.022;7.012;2023-05-10T11:56:12;15.20;99.90
54260;DHT22;40172;53.022;7.012;2023-05-10T11:58:39;15.10;99.90
54260;DHT22;40172;53.022;7.012;2023-05-10T12:01:06;15.10;99.90
54260;DHT22;40172;53.022;7.012;2023-05-10T12:03:32;15.20;99.90
54260;DHT22;40172;53.022;7.012;2023-05-10T12:05:59;15.10;99.90
54260;DHT22;40172;53.022;7.012;2023-05-10T12:08:26;15.10;99.90
54260;DHT22;40172;53.022;7.012;2023-05-10T12:11:03;15.00;99.90
54260;DHT22;40172;53.022;7.012;2023-05-10T12:13:29;15.00;99.90
54260;DHT22;40172;53.022;7.012;2023-05-10T12:15:57;14.90;99.90
54260;DHT22;40172;53.022;7.012;2023-05-10T12:18:24;14.90;99.90
54260;DHT22;40172;53.022;7.012;2023-05-10T12:20:53;14.90;99.90
54260;DHT22;40172;53.022;7.012;2023-05-10T12:23:19;14.90;99.90
54260;DHT22;40172;53.022;7.012;2023-05-10T12:25:45;14.90;99.90
54260;DHT22;40172;53.022;7.012;2023-05-10T12:28:11;15.00;99.90
54260;DHT22;40172;53.022;7.012;2023-05-10T12:30:37;15.10;99.90
54260;DHT22;40172;53.022;7.012;2023-05-10T12:33:11;15.10;99.90
54260;DHT22;40172;53.022;7.012;2023-05-10T12:35:52;15.20;99.90
54260;DHT22;40172;53.022;7.012;2023-05-10T12:38:29;15.10;99.90
54260;DHT22;40172;53.022;7.012;2023-05-10T12:41:00;15.00;99.90
54260;DHT22;40172;53.022;7.012;2023-05-10T12:43:26;15.00;99.90
54260;DHT22;40172;53.022;7.012;2023-05-10T12:45:52;15.00;99.90
54260;DHT22;40172;53.022;7.012;2023-05-10T12:48:18;15.10;99.90
54260;DHT22;40172;53.022;7.012;2023-05-10T12:50:43;15.10;99.90
54260;DHT22;40172;53.022;7.012;2023-05-10T12:53:09;15.10;99.90
54260;DHT22;40172;53.022;7.012;2023-05-10T12:55:35;15.20;99.90
54260;DHT22;40172;53.022;7.012;2023-05-10T12:58:00;15.30;99.90
54260;DHT22;40172;53.022;7.012;2023-05-10T13:00:26;15.20;99.90
54260;DHT22;40172;53.022;7.012;2023-05-10T13:02:51;15.10;99.90
54260;DHT22;40172;53.022;7.012;2023-05-10T13:05:17;15.10;99.90
54260;DHT22;40172;53.022;7.012;2023-05-10T13:07:43;15.10;99.90
54260;DHT22;40172;53.022;7.012;2023-05-10T13:10:09;15.00;99.90
54260;DHT22;40172;53.022;7.012;2023-05-10T13:12:35;15.00;99.90
54260;DHT22;40172;53.022;7.012;2023-05-10T13:15:01;14.70;99.90
54260;DHT22;40172;53.022;7.012;2023-05-10T13:17:28;15.00;99.90
54260;DHT22;40172;53.022;7.012;2023-05-10T13:19:53;15.00;99.90
54260;DHT22;40172;53.022;7.012;2023-05-10T13:22:19;15.00;99.90
54260;DHT22;40172;53.022;7.012;2023-05-10T13:24:44;14.90;99.90
54260;DHT22;40172;53.022;7.012;2023-05-10T13:27:10;15.00;99.90
54260;DHT22;40172;53.022;7.012;2023-05-10T13:29:36;15.00;99.90
54260;DHT22;40172;53.022;7.012;2023-05-10T13:32:01;15.00;99.90
54260;DHT22;40172;53.022;7.012;2023-05-10T13:34:27;15.00;99.90
54260;DHT22;40172;53.022;7.012;2023-05-10T13:36:53;14.70;99.90
54260;DHT22;40172;53.022;7.012;2023-05-10T13:39:20;15.00;99.90
54260;DHT22;40172;53.022;7.012;2023-05-10T13:41:46;15.10;99.90
54260;DHT22;40172;53.022;7.012;2023-05-10T13:44:15;15.20;99.90
54260;DHT22;40172;53.022;7.012;2023-05-10T13:46:41;15.30;99.90
54260;DHT22;40172;53.022;7.012;2023-05-10T13:49:10;15.30;99.90
54260;DHT22;40172;53.022;7.012;2023-05-10T13:51:35;15.40;99.90
54260;DHT22;40172;53.022;7.012;2023-05-10T13:54:02;15.50;99.90
54260;DHT22;40172;53.022;7.012;2023-05-10T13:56:28;15.50;99.90
54260;DHT22;40172;53.022;7.012;2023-05-10T13:58:53;15.50;99.90
54260;DHT22;40172;53.022;7.012;2023-05-10T14:01:19;15.60;99.90
54260;DHT22;40172;53.022;7.012;2023-05-10T14:03:44;15.70;99.90
54260;DHT22;40172;53.022;7.012;2023-05-10T14:06:10;15.80;99.90
54260;DHT22;40172;53.022;7.012;2023-05-10T14:08:36;15.80;99.90
54260;DHT22;40172;53.022;7.012;2023-05-10T14:11:02;15.90;99.90
54260;DHT22;40172;53.022;7.012;2023-05-10T14:13:27;15.90;99.90
54260;DHT22;40172;53.022;7.012;2023-05-10T14:15:53;16.00;99.90
54260;DHT22;40172;53.022;7.012;2023-05-10T14:18:19;16.00;99.90
54260;DHT22;40172;53.022;7.012;2023-05-10T14:20:45;16.00;99.90
54260;DHT22;40172;53.022;7.012;2023-05-10T14:23:10;16.00;99.90
54260;DHT22;40172;53.022;7.012;2023-05-10T14:25:36;15.90;99.90
54260;DHT22;40172;53.022;7.012;2023-05-10T14:28:03;16.00;99.90
54260;DHT22;40172;53.022;7.012;2023-05-10T14:30:29;16.10;99.90
54260;DHT22;40172;53.022;7.012;2023-05-10T14:32:54;16.20;99.90
54260;DHT22;40172;53.022;7.012;2023-05-10T14:35:20;16.30;99.90
54260;DHT22;40172;53.022;7.012;2023-05-10T14:37:46;16.30;99.90
54260;DHT22;40172;53.022;7.012;2023-05-10T14:40:12;16.20;99.90
54260;DHT22;40172;53.022;7.012;2023-05-10T14:42:38;16.20;99.90
54260;DHT22;40172;53.022;7.012;2023-05-10T14:45:04;16.20;99.90
54260;DHT22;40172;53.022;7.012;2023-05-10T14:47:30;16.20;99.90
54260;DHT22;40172;53.022;7.012;2023-05-10T14:49:55;16.30;99.90
54260;DHT22;40172;53.022;7.012;2023-05-10T14:52:21;16.40;99.90
54260;DHT22;40172;53.022;7.012;2023-05-10T14:54:46;16.30;99.90
54260;DHT22;40172;53.022;7.012;2023-05-10T14:57:12;16.30;99.90
54260;DHT22;40172;53.022;7.012;2023-05-10T14:59:38;16.20;99.90
54260;DHT22;40172;53.022;7.012;2023-05-10T15:02:03;16.10;99.90
54260;DHT22;40172;53.022;7.012;2023-05-10T15:04:29;16.00;99.90
54260;DHT22;40172;53.022;7.012;2023-05-10T15:06:55;15.90;99.90
54260;DHT22;40172;53.022;7.012;2023-05-10T15:09:25;15.80;99.90
54260;DHT22;40172;53.022;7.012;2023-05-10T15:11:51;15.80;99.90
54260;DHT22;40172;53.022;7.012;2023-05-10T15:14:16;16.60;99.90
54260;DHT22;40172;53.022;7.012;2023-05-10T15:16:42;15.70;99.90
54260;DHT22;40172;53.022;7.012;2023-05-10T15:19:07;15.70;99.90
54260;DHT22;40172;53.022;7.012;2023-05-10T15:21:33;15.70;99.90
54260;DHT22;40172;53.022;7.012;2023-05-10T15:24:05;15.70;99.90
54260;DHT22;40172;53.022;7.012;2023-05-10T15:26:30;15.70;99.90
54260;DHT22;40172;53.022;7.012;2023-05-10T15:28:56;15.70;99.90
54260;DHT22;40172;53.022;7.012;2023-05-10T15:31:22;15.70;99.90
54260;DHT22;40172;53.022;7.012;2023-05-10T15:33:48;15.60;99.90
54260;DHT22;40172;53.022;7.012;2023-05-10T15:36:13;15.60;99.90
54260;DHT22;40172;53.022;7.012;2023-05-10T15:38:39;15.60;99.90
54260;DHT22;40172;53.022;7.012;2023-05-10T15:41:04;15.60;99.90
54260;DHT22;40172;53.022;7.012;2023-05-10T15:43:30;15.60;99.90
54260;DHT22;40172;53.022;7.012;2023-05-10T15:45:56;15.60;99.90
54260;DHT22;40172;53.022;7.012;2023-05-10T15:48:21;15.70;99.90
54260;DHT22;40172;53.022;7.012;2023-05-10T15:50:47;15.70;99.90
54260;DHT22;40172;53.022;7.012;2023-05-10T15:53:13;15.80;99.90
54260;DHT22;40172;53.022;7.012;2023-05-10T15:55:38;15.80;99.90
54260;DHT22;40172;53.022;7.012;2023-05-10T15:58:04;15.80;99.90
54260;DHT22;40172;53.022;7.012;2023-05-10T16:00:30;15.80;99.90
54260;DHT22;40172;53.022;7.012;2023-05-10T16:02:55;15.90;99.90
54260;DHT22;40172;53.022;7.012;2023-05-10T16:05:21;15.90;99.90